sensor_id;sensor_type;location;lat;lon;timestamp;pressure;altitude;pressure_sealevel;temperature;humidity
64298;BME280;50639;53.270;7.956;2023-06-22T00:00:57;102022.06;;;17.67;76.80
64298;BME280;50639;53.270;7.956;2023-06-22T00:03:24;102019.94;;;17.69;76.49
64298;BME280;50639;53.270;7.956;2023-06-22T00:05:50;102016.66;;;17.67;76.11
64298;BME280;50639;53.270;7.956;2023-06-22T00:08:17;102016.66;;;17.67;76.15
64298;BME280;50639;53.270;7.956;2023-06-22T00:10:45;102021.81;;;17.62;75.91
64298;BME280;50639;53.270;7.956;2023-06-22T00:13:11;102005.38;;;17.57;76.42
64298;BME280;50639;53.270;7.956;2023-06-22T00:15:38;102008.72;;;17.59;76.47
64298;BME280;50639;53.270;7.956;2023-06-22T00:18:05;102017.03;;;17.57;76.41
64298;BME280;50639;53.270;7.956;2023-06-22T00:20:31;102018.47;;;17.60;76.50
64298;BME280;50639;53.270;7.956;2023-06-22T00:22:58;102021.44;;;17.65;76.55
64298;BME280;50639;53.270;7.956;2023-06-22T00:25:24;102017.25;;;17.62;76.58
64298;BME280;50639;53.270;7.956;2023-06-22T00:27:50;102030.56;;;17.64;76.38
64298;BME280;50639;53.270;7.956;2023-06-22T00:30:16;102026.56;;;17.60;76.64
64298;BME280;50639;53.270;7.956;2023-06-22T00:32:43;102024.69;;;17.54;76.73
64298;BME280;50639;53.270;7.956;2023-06-22T00:35:09;102022.84;;;17.48;76.56
64298;BME280;50639;53.270;7.956;2023-06-22T00:37:38;102027.41;;;17.47;76.29
64298;BME280;50639;53.270;7.956;2023-06-22T00:40:08;102025.53;;;17.48;76.49
64298;BME280;50639;53.270;7.956;2023-06-22T00:42:34;102022.22;;;17.46;76.71
64298;BME280;50639;53.270;7.956;2023-06-22T00:44:59;102018.47;;;17.47;76.88
64298;BME280;50639;53.270;7.956;2023-06-22T00:47:25;102015.38;;;17.50;77.23
64298;BME280;50639;53.270;7.956;2023-06-22T00:49:51;102015.75;;;17.53;77.31
64298;BME280;50639;53.270;7.956;2023-06-22T00:52:17;102016.41;;;17.55;77.30
64298;BME280;50639;53.270;7.956;2023-06-22T00:54:47;102012.66;;;17.50;77.26
64298;BME280;50639;53.270;7.956;2023-06-22T00:57:15;102017.00;;;17.51;77.28
64298;BME280;50639;53.270;7.956;2023-06-22T00:59:47;102012.66;;;17.50;77.63
64298;BME280;50639;53.270;7.956;2023-06-22T01:02:13;102006.00;;;17.52;77.73
64298;BME280;50639;53.270;7.956;2023-06-22T01:04:39;102005.59;;;17.49;77.56
64298;BME280;50639;53.270;7.956;2023-06-22T01:07:10;102015.53;;;17.42;78.11
64298;BME280;50639;53.270;7.956;2023-06-22T01:12:30;102008.25;;;17.36;78.33
64298;BME280;50639;53.270;7.956;2023-06-22T01:15:10;102013.88;;;17.27;78.78
64298;BME280;50639;53.270;7.956;2023-06-22T01:17:40;102006.78;;;17.26;78.87
64298;BME280;50639;53.270;7.956;2023-06-22T01:20:10;101993.53;;;17.32;78.52
64298;BME280;50639;53.270;7.956;2023-06-22T01:23:02;101994.34;;;17.32;79.00
64298;BME280;50639;53.270;7.956;2023-06-22T01:25:52;101996.00;;;17.26;79.42
64298;BME280;50639;53.270;7.956;2023-06-22T01:28:42;101986.88;;;17.27;79.36
64298;BME280;50639;53.270;7.956;2023-06-22T01:31:12;102002.88;;;17.29;79.29
64298;BME280;50639;53.270;7.956;2023-06-22T01:33:41;102005.97;;;17.26;78.80
64298;BME280;50639;53.270;7.956;2023-06-22T01:36:07;102007.84;;;17.25;78.67
64298;BME280;50639;53.270;7.956;2023-06-22T01:38:34;102007.22;;;17.23;78.55
64298;BME280;50639;53.270;7.956;2023-06-22T01:41:01;102008.88;;;17.24;78.29
64298;BME280;50639;53.270;7.956;2023-06-22T01:43:27;102003.47;;;17.24;78.24
64298;BME280;50639;53.270;7.956;2023-06-22T01:46:00;101991.03;;;17.23;78.04
64298;BME280;50639;53.270;7.956;2023-06-22T01:48:26;101992.25;;;17.21;78.36
64298;BME280;50639;53.270;7.956;2023-06-22T01:50:53;102002.63;;;17.24;78.51
64298;BME280;50639;53.270;7.956;2023-06-22T01:53:22;101992.25;;;17.21;78.37
64298;BME280;50639;53.270;7.956;2023-06-22T01:55:51;102003.13;;;16.73;80.83
64298;BME280;50639;53.270;7.956;2023-06-22T01:58:17;101991.88;;;16.63;81.97
64298;BME280;50639;53.270;7.956;2023-06-22T02:00:59;101992.16;;;16.40;83.68
64298;BME280;50639;53.270;7.956;2023-06-22T02:03:37;101995.16;;;16.59;83.59
64298;BME280;50639;53.270;7.956;2023-06-22T02:06:10;101997.84;;;16.52;83.48
64298;BME280;50639;53.270;7.956;2023-06-22T02:08:59;101997.84;;;16.59;83.51
64298;BME280;50639;53.270;7.956;2023-06-22T02:11:27;102000.03;;;16.70;82.27
64298;BME280;50639;53.270;7.956;2023-06-22T02:13:55;102000.44;;;16.73;81.94
64298;BME280;50639;53.270;7.956;2023-06-22T02:16:23;101990.66;;;16.31;83.62
64298;BME280;50639;53.270;7.956;2023-06-22T02:18:50;101986.16;;;16.45;83.59
64298;BME280;50639;53.270;7.956;2023-06-22T02:21:16;101997.63;;;16.53;82.52
64298;BME280;50639;53.270;7.956;2023-06-22T02:23:42;102008.00;;;16.50;82.00
64298;BME280;50639;53.270;7.956;2023-06-22T02:26:07;102009.03;;;16.55;81.96
64298;BME280;50639;53.270;7.956;2023-06-22T02:28:33;102005.38;;;16.63;81.57
64298;BME280;50639;53.270;7.956;2023-06-22T02:30:58;102008.16;;;16.42;81.75
64298;BME280;50639;53.270;7.956;2023-06-22T02:33:24;101995.59;;;16.21;83.20
64298;BME280;50639;53.270;7.956;2023-06-22T02:35:49;102002.16;;;16.12;84.63
64298;BME280;50639;53.270;7.956;2023-06-22T02:38:15;102000.63;;;16.31;83.55
64298;BME280;50639;53.270;7.956;2023-06-22T02:40:40;102001.94;;;16.41;82.26
64298;BME280;50639;53.270;7.956;2023-06-22T02:43:06;101994.06;;;16.46;81.39
64298;BME280;50639;53.270;7.956;2023-06-22T02:45:31;101998.84;;;16.44;81.82
64298;BME280;50639;53.270;7.956;2023-06-22T02:47:57;101992.16;;;16.40;82.00
64298;BME280;50639;53.270;7.956;2023-06-22T02:50:23;101999.22;;;16.41;81.71
64298;BME280;50639;53.270;7.956;2023-06-22T02:52:49;102005.44;;;16.35;82.75
64298;BME280;50639;53.270;7.956;2023-06-22T02:55:15;102006.78;;;16.18;83.35
64298;BME280;50639;53.270;7.956;2023-06-22T02:57:44;102008.00;;;16.15;84.26
64298;BME280;50639;53.270;7.956;2023-06-22T03:00:12;102019.59;;;16.09;84.75
64298;BME280;50639;53.270;7.956;2023-06-22T03:02:47;102010.94;;;16.21;84.02
64298;BME280;50639;53.270;7.956;2023-06-22T03:05:13;102007.66;;;16.25;83.13
64298;BME280;50639;53.270;7.956;2023-06-22T03:07:40;102013.66;;;16.27;82.30
64298;BME280;50639;53.270;7.956;2023-06-22T03:10:08;102008.91;;;16.29;81.62
64298;BME280;50639;53.270;7.956;2023-06-22T03:12:36;102012.03;;;16.26;80.94
64298;BME280;50639;53.270;7.956;2023-06-22T03:15:05;102003.94;;;16.26;81.17
64298;BME280;50639;53.270;7.956;2023-06-22T03:17:30;102017.16;;;16.21;81.77
64298;BME280;50639;53.270;7.956;2023-06-22T03:19:56;102009.00;;;16.08;82.75
64298;BME280;50639;53.270;7.956;2023-06-22T03:22:21;102008.84;;;16.16;82.70
64298;BME280;50639;53.270;7.956;2023-06-22T03:24:48;102012.59;;;16.22;82.35
64298;BME280;50639;53.270;7.956;2023-06-22T03:27:14;102010.72;;;16.15;83.02
64298;BME280;50639;53.270;7.956;2023-06-22T03:29:40;102013.59;;;16.14;82.59
64298;BME280;50639;53.270;7.956;2023-06-22T03:32:06;102011.53;;;16.16;82.45
64298;BME280;50639;53.270;7.956;2023-06-22T03:34:32;102015.09;;;16.23;81.98
64298;BME280;50639;53.270;7.956;2023-06-22T03:37:04;102010.97;;;16.27;81.48
64298;BME280;50639;53.270;7.956;2023-06-22T03:39:29;102011.75;;;16.21;81.92
64298;BME280;50639;53.270;7.956;2023-06-22T03:41:56;102022.16;;;16.24;82.16
64298;BME280;50639;53.270;7.956;2023-06-22T03:44:23;102025.69;;;16.25;81.62
64298;BME280;50639;53.270;7.956;2023-06-22T03:46:48;102023.84;;;16.25;81.63
64298;BME280;50639;53.270;7.956;2023-06-22T03:49:14;102033.81;;;16.31;81.52
64298;BME280;50639;53.270;7.956;2023-06-22T03:51:39;102028.63;;;16.30;82.06
64298;BME280;50639;53.270;7.956;2023-06-22T03:54:05;102033.84;;;16.38;81.50
64298;BME280;50639;53.270;7.956;2023-06-22T03:56:30;102033.66;;;16.39;81.39
64298;BME280;50639;53.270;7.956;2023-06-22T03:58:57;102034.50;;;16.40;80.68
64298;BME280;50639;53.270;7.956;2023-06-22T04:01:23;102035.28;;;16.34;81.12
64298;BME280;50639;53.270;7.956;2023-06-22T04:03:48;102039.69;;;16.41;80.56
64298;BME280;50639;53.270;7.956;2023-06-22T04:06:15;102034.13;;;16.49;80.76
64298;BME280;50639;53.270;7.956;2023-06-22T04:08:40;102035.19;;;16.55;80.79
64298;BME280;50639;53.270;7.956;2023-06-22T04:11:06;102036.47;;;16.59;80.64
64298;BME280;50639;53.270;7.956;2023-06-22T04:13:31;102031.44;;;16.56;80.85
64298;BME280;50639;53.270;7.956;2023-06-22T04:15:57;102041.16;;;16.44;81.50
64298;BME280;50639;53.270;7.956;2023-06-22T04:18:22;102030.97;;;16.46;81.94
64298;BME280;50639;53.270;7.956;2023-06-22T04:20:47;102034.59;;;16.60;81.09
64298;BME280;50639;53.270;7.956;2023-06-22T04:23:13;102039.03;;;16.67;80.95
64298;BME280;50639;53.270;7.956;2023-06-22T04:25:39;102030.72;;;16.69;80.64
64298;BME280;50639;53.270;7.956;2023-06-22T04:28:04;102036.84;;;16.56;81.80
64298;BME280;50639;53.270;7.956;2023-06-22T04:30:30;102035.63;;;16.59;82.04
64298;BME280;50639;53.270;7.956;2023-06-22T04:32:57;102036.13;;;16.69;81.81
64298;BME280;50639;53.270;7.956;2023-06-22T04:35:26;102036.53;;;16.72;81.62
64298;BME280;50639;53.270;7.956;2023-06-22T04:37:53;102038.63;;;16.70;81.65
64298;BME280;50639;53.270;7.956;2023-06-22T04:40:22;102045.59;;;16.58;82.33
64298;BME280;50639;53.270;7.956;2023-06-22T04:42:47;102035.28;;;16.68;82.21
64298;BME280;50639;53.270;7.956;2023-06-22T04:45:19;102040.81;;;16.60;82.39
64298;BME280;50639;53.270;7.956;2023-06-22T04:47:45;102036.09;;;16.62;82.30
64298;BME280;50639;53.270;7.956;2023-06-22T04:50:12;102039.03;;;16.74;81.81
64298;BME280;50639;53.270;7.956;2023-06-22T04:52:37;102036.34;;;16.74;81.83
64298;BME280;50639;53.270;7.956;2023-06-22T04:55:03;102034.75;;;16.86;81.46
64298;BME280;50639;53.270;7.956;2023-06-22T04:57:29;102038.69;;;16.90;81.42
64298;BME280;50639;53.270;7.956;2023-06-22T05:00:01;102034.97;;;16.98;81.30
64298;BME280;50639;53.270;7.956;2023-06-22T05:02:27;102033.53;;;17.02;80.99
64298;BME280;50639;53.270;7.956;2023-06-22T05:04:53;102033.53;;;16.95;80.97
64298;BME280;50639;53.270;7.956;2023-06-22T05:07:22;102035.78;;;16.85;80.96
64298;BME280;50639;53.270;7.956;2023-06-22T05:09:50;102022.38;;;16.64;82.20
64298;BME280;50639;53.270;7.956;2023-06-22T05:12:16;102029.31;;;16.79;82.26
64298;BME280;50639;53.270;7.956;2023-06-22T05:14:41;102031.19;;;16.79;82.25
64298;BME280;50639;53.270;7.956;2023-06-22T05:17:07;102033.75;;;17.00;81.56
64298;BME280;50639;53.270;7.956;2023-06-22T05:19:39;102025.91;;;17.18;80.92
64298;BME280;50639;53.270;7.956;2023-06-22T05:22:10;102024.28;;;17.30;80.61
64298;BME280;50639;53.270;7.956;2023-06-22T05:24:38;102025.94;;;17.38;80.44
64298;BME280;50639;53.270;7.956;2023-06-22T05:27:03;102019.50;;;17.46;80.20
64298;BME280;50639;53.270;7.956;2023-06-22T05:29:29;102021.59;;;17.57;80.06
64298;BME280;50639;53.270;7.956;2023-06-22T05:31:54;102017.25;;;17.69;79.73
64298;BME280;50639;53.270;7.956;2023-06-22T05:34:20;102016.44;;;17.82;79.33
64298;BME280;50639;53.270;7.956;2023-06-22T05:36:45;102015.78;;;17.86;79.11
64298;BME280;50639;53.270;7.956;2023-06-22T05:39:12;102017.84;;;17.97;78.73
64298;BME280;50639;53.270;7.956;2023-06-22T05:41:39;102018.06;;;18.09;78.59
64298;BME280;50639;53.270;7.956;2023-06-22T05:44:04;102022.00;;;18.20;78.84
64298;BME280;50639;53.270;7.956;2023-06-22T05:46:30;102021.56;;;18.29;78.57
64298;BME280;50639;53.270;7.956;2023-06-22T05:48:55;102022.13;;;18.45;78.11
64298;BME280;50639;53.270;7.956;2023-06-22T05:51:20;102026.69;;;18.64;77.91
64298;BME280;50639;53.270;7.956;2023-06-22T05:53:46;102025.56;;;18.78;77.54
64298;BME280;50639;53.270;7.956;2023-06-22T05:56:15;102026.31;;;18.92;76.97
64298;BME280;50639;53.270;7.956;2023-06-22T05:58:40;102026.94;;;18.94;76.91
64298;BME280;50639;53.270;7.956;2023-06-22T06:01:06;102028.78;;;19.00;76.92
64298;BME280;50639;53.270;7.956;2023-06-22T06:03:31;102027.72;;;19.07;76.69
64298;BME280;50639;53.270;7.956;2023-06-22T06:05:57;102021.38;;;19.20;76.54
64298;BME280;50639;53.270;7.956;2023-06-22T06:08:22;102029.03;;;19.30;76.50
64298;BME280;50639;53.270;7.956;2023-06-22T06:10:48;102027.28;;;19.42;76.20
64298;BME280;50639;53.270;7.956;2023-06-22T06:13:13;102034.50;;;19.54;75.88
64298;BME280;50639;53.270;7.956;2023-06-22T06:15:39;102034.75;;;19.46;76.18
64298;BME280;50639;53.270;7.956;2023-06-22T06:18:05;102023.84;;;19.60;75.92
64298;BME280;50639;53.270;7.956;2023-06-22T06:20:32;102024.41;;;19.68;75.09
64298;BME280;50639;53.270;7.956;2023-06-22T06:22:57;102020.16;;;19.79;74.99
64298;BME280;50639;53.270;7.956;2023-06-22T06:25:23;102026.34;;;19.86;74.86
64298;BME280;50639;53.270;7.956;2023-06-22T06:27:56;102019.13;;;19.98;74.46
64298;BME280;50639;53.270;7.956;2023-06-22T06:30:22;102020.34;;;20.02;74.50
64298;BME280;50639;53.270;7.956;2023-06-22T06:32:48;102019.66;;;20.07;74.35
64298;BME280;50639;53.270;7.956;2023-06-22T06:35:15;102028.50;;;20.20;74.08
64298;BME280;50639;53.270;7.956;2023-06-22T06:37:45;102017.97;;;20.31;73.59
64298;BME280;50639;53.270;7.956;2023-06-22T06:40:11;102027.78;;;20.50;73.87
64298;BME280;50639;53.270;7.956;2023-06-22T06:46:24;102017.25;;;20.90;72.02
64298;BME280;50639;53.270;7.956;2023-06-22T06:48:49;102021.00;;;21.07;71.57
64298;BME280;50639;53.270;7.956;2023-06-22T06:51:15;102025.69;;;21.30;70.82
64298;BME280;50639;53.270;7.956;2023-06-22T06:53:40;102024.31;;;21.39;69.44
64298;BME280;50639;53.270;7.956;2023-06-22T06:56:08;102027.88;;;21.51;69.33
64298;BME280;50639;53.270;7.956;2023-06-22T06:58:52;102026.84;;;21.52;68.62
64298;BME280;50639;53.270;7.956;2023-06-22T07:01:26;102021.16;;;21.65;68.12
64298;BME280;50639;53.270;7.956;2023-06-22T07:03:52;102031.22;;;21.76;68.48
64298;BME280;50639;53.270;7.956;2023-06-22T07:06:18;102031.25;;;21.88;68.06
64298;BME280;50639;53.270;7.956;2023-06-22T07:08:44;102024.44;;;21.97;68.30
64298;BME280;50639;53.270;7.956;2023-06-22T07:11:09;102025.38;;;22.14;67.27
64298;BME280;50639;53.270;7.956;2023-06-22T07:13:35;102023.47;;;22.15;66.02
64298;BME280;50639;53.270;7.956;2023-06-22T07:16:01;102017.91;;;22.10;65.79
64298;BME280;50639;53.270;7.956;2023-06-22T07:18:28;102022.75;;;22.20;64.98
64298;BME280;50639;53.270;7.956;2023-06-22T07:20:54;102023.44;;;22.27;65.03
64298;BME280;50639;53.270;7.956;2023-06-22T07:23:20;102018.97;;;22.21;64.05
64298;BME280;50639;53.270;7.956;2023-06-22T07:25:45;102020.97;;;22.25;64.30
64298;BME280;50639;53.270;7.956;2023-06-22T07:28:11;102023.72;;;22.25;62.48
64298;BME280;50639;53.270;7.956;2023-06-22T07:30:38;102015.72;;;22.35;63.80
64298;BME280;50639;53.270;7.956;2023-06-22T07:33:05;102023.50;;;22.67;62.46
64298;BME280;50639;53.270;7.956;2023-06-22T07:35:34;102019.19;;;22.82;61.82
64298;BME280;50639;53.270;7.956;2023-06-22T07:38:00;102021.69;;;23.12;61.46
64298;BME280;50639;53.270;7.956;2023-06-22T07:40:26;102022.16;;;23.09;60.98
64298;BME280;50639;53.270;7.956;2023-06-22T07:42:51;102017.06;;;22.73;61.44
64298;BME280;50639;53.270;7.956;2023-06-22T07:45:18;102012.22;;;22.86;60.65
64298;BME280;50639;53.270;7.956;2023-06-22T07:47:43;102013.13;;;22.92;59.86
64298;BME280;50639;53.270;7.956;2023-06-22T07:50:09;102006.56;;;22.76;59.49
64298;BME280;50639;53.270;7.956;2023-06-22T07:52:35;102019.44;;;22.81;60.48
64298;BME280;50639;53.270;7.956;2023-06-22T07:55:01;102017.31;;;22.71;59.90
64298;BME280;50639;53.270;7.956;2023-06-22T07:57:28;102007.72;;;22.80;59.98
64298;BME280;50639;53.270;7.956;2023-06-22T08:00:00;102004.75;;;22.82;58.78
64298;BME280;50639;53.270;7.956;2023-06-22T08:02:26;102001.44;;;22.80;58.73
64298;BME280;50639;53.270;7.956;2023-06-22T08:04:52;101995.28;;;22.73;59.56
64298;BME280;50639;53.270;7.956;2023-06-22T08:07:17;101989.59;;;22.86;59.72
64298;BME280;50639;53.270;7.956;2023-06-22T08:09:48;101985.63;;;22.94;59.55
64298;BME280;50639;53.270;7.956;2023-06-22T08:12:14;101983.31;;;22.85;58.95
64298;BME280;50639;53.270;7.956;2023-06-22T08:14:42;101980.97;;;22.77;58.01
64298;BME280;50639;53.270;7.956;2023-06-22T08:17:08;101984.25;;;22.79;59.31
64298;BME280;50639;53.270;7.956;2023-06-22T08:19:34;101970.59;;;22.91;58.54
64298;BME280;50639;53.270;7.956;2023-06-22T08:21:59;101981.28;;;22.81;58.60
64298;BME280;50639;53.270;7.956;2023-06-22T08:24:25;101983.16;;;22.92;58.00
64298;BME280;50639;53.270;7.956;2023-06-22T08:26:51;101980.38;;;23.04;58.87
64298;BME280;50639;53.270;7.956;2023-06-22T08:29:17;101975.91;;;23.14;58.39
64298;BME280;50639;53.270;7.956;2023-06-22T08:31:42;101982.34;;;23.08;56.66
64298;BME280;50639;53.270;7.956;2023-06-22T08:34:08;101987.09;;;23.13;57.77
64298;BME280;50639;53.270;7.956;2023-06-22T08:36:33;101976.59;;;23.21;57.73
64298;BME280;50639;53.270;7.956;2023-06-22T08:39:03;101976.31;;;23.23;58.01
64298;BME280;50639;53.270;7.956;2023-06-22T08:41:29;101971.88;;;23.34;57.74
64298;BME280;50639;53.270;7.956;2023-06-22T08:43:55;101976.59;;;23.38;57.34
64298;BME280;50639;53.270;7.956;2023-06-22T08:46:22;101971.09;;;23.50;58.25
64298;BME280;50639;53.270;7.956;2023-06-22T08:48:50;101974.06;;;23.65;57.46
64298;BME280;50639;53.270;7.956;2023-06-22T08:51:16;101964.97;;;23.59;56.70
64298;BME280;50639;53.270;7.956;2023-06-22T08:53:42;101963.59;;;23.57;56.94
64298;BME280;50639;53.270;7.956;2023-06-22T08:56:08;101974.97;;;23.54;56.75
64298;BME280;50639;53.270;7.956;2023-06-22T08:58:33;101963.16;;;23.65;55.85
64298;BME280;50639;53.270;7.956;2023-06-22T09:00:59;101967.78;;;23.81;56.39
64298;BME280;50639;53.270;7.956;2023-06-22T09:03:26;101963.19;;;23.87;55.87
64298;BME280;50639;53.270;7.956;2023-06-22T09:05:52;101963.00;;;23.93;55.56
64298;BME280;50639;53.270;7.956;2023-06-22T09:08:17;101957.75;;;23.87;55.10
64298;BME280;50639;53.270;7.956;2023-06-22T09:10:43;101960.63;;;23.97;56.09
64298;BME280;50639;53.270;7.956;2023-06-22T09:13:09;101962.16;;;24.10;56.65
64298;BME280;50639;53.270;7.956;2023-06-22T09:15:34;101958.84;;;24.08;55.59
64298;BME280;50639;53.270;7.956;2023-06-22T09:18:00;101958.34;;;24.11;54.67
64298;BME280;50639;53.270;7.956;2023-06-22T09:20:25;101957.00;;;24.13;54.11
64298;BME280;50639;53.270;7.956;2023-06-22T09:22:51;101955.69;;;24.16;54.48
64298;BME280;50639;53.270;7.956;2023-06-22T09:25:17;101956.25;;;24.18;54.02
64298;BME280;50639;53.270;7.956;2023-06-22T09:27:43;101951.16;;;24.05;54.25
64298;BME280;50639;53.270;7.956;2023-06-22T09:30:08;101946.00;;;23.86;54.89
64298;BME280;50639;53.270;7.956;2023-06-22T09:32:34;101941.47;;;24.14;55.23
64298;BME280;50639;53.270;7.956;2023-06-22T09:35:05;101942.88;;;24.16;53.49
64298;BME280;50639;53.270;7.956;2023-06-22T09:37:32;101931.06;;;24.32;52.87
64298;BME280;50639;53.270;7.956;2023-06-22T09:39:57;101942.84;;;24.33;51.89
64298;BME280;50639;53.270;7.956;2023-06-22T09:42:24;101928.34;;;23.94;53.93
64298;BME280;50639;53.270;7.956;2023-06-22T09:44:49;101934.16;;;24.19;51.65
64298;BME280;50639;53.270;7.956;2023-06-22T09:47:15;101934.69;;;24.16;53.26
64298;BME280;50639;53.270;7.956;2023-06-22T09:49:40;101923.63;;;24.28;52.42
64298;BME280;50639;53.270;7.956;2023-06-22T09:52:06;101911.66;;;24.56;52.70
64298;BME280;50639;53.270;7.956;2023-06-22T09:54:31;101919.97;;;24.66;53.42
64298;BME280;50639;53.270;7.956;2023-06-22T09:56:57;101913.38;;;24.89;53.22
64298;BME280;50639;53.270;7.956;2023-06-22T09:59:22;101914.84;;;24.96;52.81
64298;BME280;50639;53.270;7.956;2023-06-22T10:01:47;101912.50;;;25.10;51.85
64298;BME280;50639;53.270;7.956;2023-06-22T10:04:13;101908.66;;;25.06;50.76
64298;BME280;50639;53.270;7.956;2023-06-22T10:06:38;101914.28;;;24.94;52.09
64298;BME280;50639;53.270;7.956;2023-06-22T10:09:06;101916.28;;;25.04;51.06
64298;BME280;50639;53.270;7.956;2023-06-22T10:11:33;101902.84;;;24.97;51.48
64298;BME280;50639;53.270;7.956;2023-06-22T10:14:00;101903.06;;;25.28;51.27
64298;BME280;50639;53.270;7.956;2023-06-22T10:16:32;101900.66;;;25.36;50.06
64298;BME280;50639;53.270;7.956;2023-06-22T10:18:58;101899.44;;;24.90;51.27
64298;BME280;50639;53.270;7.956;2023-06-22T10:21:23;101899.34;;;25.07;49.86
64298;BME280;50639;53.270;7.956;2023-06-22T10:23:49;101905.59;;;25.02;50.82
64298;BME280;50639;53.270;7.956;2023-06-22T10:26:15;101897.44;;;25.44;50.23
64298;BME280;50639;53.270;7.956;2023-06-22T10:28:40;101893.47;;;25.62;50.62
64298;BME280;50639;53.270;7.956;2023-06-22T10:31:06;101887.50;;;25.70;49.03
64298;BME280;50639;53.270;7.956;2023-06-22T10:33:31;101878.47;;;25.70;49.78
64298;BME280;50639;53.270;7.956;2023-06-22T10:35:56;101884.88;;;25.85;49.98
64298;BME280;50639;53.270;7.956;2023-06-22T10:38:22;101880.09;;;25.66;48.32
64298;BME280;50639;53.270;7.956;2023-06-22T10:40:49;101885.59;;;25.34;50.19
64298;BME280;50639;53.270;7.956;2023-06-22T10:43:14;101883.34;;;25.63;50.58
64298;BME280;50639;53.270;7.956;2023-06-22T10:45:39;101882.38;;;25.84;49.45
64298;BME280;50639;53.270;7.956;2023-06-22T10:48:05;101876.72;;;26.06;50.46
64298;BME280;50639;53.270;7.956;2023-06-22T10:50:31;101872.09;;;26.16;50.02
64298;BME280;50639;53.270;7.956;2023-06-22T10:52:59;101876.78;;;26.21;47.60
64298;BME280;50639;53.270;7.956;2023-06-22T10:55:26;101879.47;;;26.06;48.80
64298;BME280;50639;53.270;7.956;2023-06-22T10:57:51;101878.47;;;26.32;49.77
64298;BME280;50639;53.270;7.956;2023-06-22T11:00:17;101879.63;;;26.46;48.75
64298;BME280;50639;53.270;7.956;2023-06-22T11:02:43;101880.41;;;26.42;48.97
64298;BME280;50639;53.270;7.956;2023-06-22T11:05:08;101874.69;;;26.38;46.93
64298;BME280;50639;53.270;7.956;2023-06-22T11:07:34;101866.78;;;26.62;48.89
64298;BME280;50639;53.270;7.956;2023-06-22T11:09:59;101861.28;;;26.62;45.70
64298;BME280;50639;53.270;7.956;2023-06-22T11:12:25;101859.09;;;26.79;46.85
64298;BME280;50639;53.270;7.956;2023-06-22T11:14:50;101861.06;;;25.91;47.45
64298;BME280;50639;53.270;7.956;2023-06-22T11:17:17;101846.38;;;26.17;48.48
64298;BME280;50639;53.270;7.956;2023-06-22T11:19:44;101852.75;;;26.43;48.20
64298;BME280;50639;53.270;7.956;2023-06-22T11:22:11;101845.66;;;26.78;48.11
64298;BME280;50639;53.270;7.956;2023-06-22T11:24:38;101847.59;;;26.72;46.86
64298;BME280;50639;53.270;7.956;2023-06-22T11:27:03;101852.28;;;26.97;46.79
64298;BME280;50639;53.270;7.956;2023-06-22T11:29:29;101851.13;;;26.83;46.81
64298;BME280;50639;53.270;7.956;2023-06-22T11:31:55;101843.47;;;27.10;46.76
64298;BME280;50639;53.270;7.956;2023-06-22T11:34:21;101843.75;;;27.24;45.78
64298;BME280;50639;53.270;7.956;2023-06-22T11:36:47;101845.69;;;27.08;47.32
64298;BME280;50639;53.270;7.956;2023-06-22T11:39:13;101844.28;;;27.41;46.72
64298;BME280;50639;53.270;7.956;2023-06-22T11:41:40;101835.19;;;27.46;46.12
64298;BME280;50639;53.270;7.956;2023-06-22T11:44:06;101829.72;;;27.41;45.66
64298;BME280;50639;53.270;7.956;2023-06-22T11:46:32;101831.91;;;27.39;44.97
64298;BME280;50639;53.270;7.956;2023-06-22T11:48:58;101819.59;;;26.45;47.49
64298;BME280;50639;53.270;7.956;2023-06-22T11:51:24;101827.03;;;27.10;49.36
64298;BME280;50639;53.270;7.956;2023-06-22T11:53:50;101836.34;;;27.09;44.97
64298;BME280;50639;53.270;7.956;2023-06-22T11:56:15;101833.25;;;27.46;46.98
64298;BME280;50639;53.270;7.956;2023-06-22T11:58:41;101838.19;;;27.64;44.75
64298;BME280;50639;53.270;7.956;2023-06-22T12:01:07;101830.50;;;27.46;45.02
64298;BME280;50639;53.270;7.956;2023-06-22T12:03:32;101828.97;;;26.94;46.00
64298;BME280;50639;53.270;7.956;2023-06-22T12:05:59;101826.16;;;27.30;46.50
64298;BME280;50639;53.270;7.956;2023-06-22T12:08:24;101828.03;;;27.45;45.37
64298;BME280;50639;53.270;7.956;2023-06-22T12:10:50;101814.88;;;27.47;44.89
64298;BME280;50639;53.270;7.956;2023-06-22T12:13:17;101819.09;;;26.99;46.90
64298;BME280;50639;53.270;7.956;2023-06-22T12:15:42;101817.38;;;27.38;46.28
64298;BME280;50639;53.270;7.956;2023-06-22T12:18:08;101814.41;;;26.64;47.21
64298;BME280;50639;53.270;7.956;2023-06-22T12:20:34;101816.50;;;26.16;48.39
64298;BME280;50639;53.270;7.956;2023-06-22T12:22:59;101808.56;;;26.09;48.74
64298;BME280;50639;53.270;7.956;2023-06-22T12:25:25;101815.59;;;25.90;49.55
64298;BME280;50639;53.270;7.956;2023-06-22T12:27:50;101813.00;;;26.36;50.34
64298;BME280;50639;53.270;7.956;2023-06-22T12:30:16;101793.03;;;26.96;47.37
64298;BME280;50639;53.270;7.956;2023-06-22T12:32:42;101802.84;;;27.32;46.86
64298;BME280;50639;53.270;7.956;2023-06-22T12:35:08;101793.28;;;26.44;48.15
64298;BME280;50639;53.270;7.956;2023-06-22T12:37:42;101800.69;;;26.43;49.22
64298;BME280;50639;53.270;7.956;2023-06-22T12:40:09;101795.22;;;27.04;48.99
64298;BME280;50639;53.270;7.956;2023-06-22T12:42:35;101796.59;;;26.71;48.49
64298;BME280;50639;53.270;7.956;2023-06-22T12:45:00;101794.41;;;27.04;49.87
64298;BME280;50639;53.270;7.956;2023-06-22T12:47:26;101793.56;;;26.83;48.81
64298;BME280;50639;53.270;7.956;2023-06-22T12:49:51;101793.28;;;26.29;49.34
64298;BME280;50639;53.270;7.956;2023-06-22T12:52:18;101779.31;;;27.01;49.33
64298;BME280;50639;53.270;7.956;2023-06-22T12:54:43;101780.16;;;26.51;49.70